Repülésmeteorológia

  • METAR LHSM 211245Z 01008KT CAVOK 22/06 Q1021 NOSIG=
  • METAR LHSM 211215Z 01011KT CAVOK 22/06 Q1021 NOSIG=
  • METAR LHSM 211145Z 35012KT CAVOK 22/07 Q1021 NOSIG=
  • METAR LHSM 211115Z 35015G25KT CAVOK 22/06 Q1021 NOSIG=
  • METAR LHSM 211045Z 35014KT CAVOK 22/08 Q1021 NOSIG=

  • TAF LHSM 211115Z 2112/2121 34015G25KT CAVOK
  • TAF LHSM 210815Z 2109/2118 34010KT CAVOK
  • TAF LHSM 210515Z 2106/2115 31006KT CAVOK
  • TAF LHSM 201115Z 2012/2021 36010KT CAVOK
  • TAF LHSM 200815Z 2009/2018 34009KT 9999 SCT020 BKN080